sensor_id;sensor_type;location;lat;lon;timestamp;pressure;altitude;pressure_sealevel;temperature
47484;BMP280;54076;50.322;18.650;2024-03-23T00:57:07;98230.41;;;14.13
47484;BMP280;54076;50.322;18.650;2024-03-23T01:02:08;98225.22;;;14.12
47484;BMP280;54076;50.322;18.650;2024-03-23T01:07:09;98224.85;;;13.98
47484;BMP280;54076;50.322;18.650;2024-03-23T01:12:10;98216.02;;;13.87
47484;BMP280;54076;50.322;18.650;2024-03-23T01:17:11;98203.34;;;13.83
47484;BMP280;54076;50.322;18.650;2024-03-23T01:22:12;98198.67;;;13.81
47484;BMP280;54076;50.322;18.650;2024-03-23T01:27:13;98188.86;;;13.97
47484;BMP280;54076;50.322;18.650;2024-03-23T01:32:14;98174.52;;;13.93
47484;BMP280;54076;50.322;18.650;2024-03-23T01:37:15;98167.64;;;14.02
47484;BMP280;54076;50.322;18.650;2024-03-23T01:42:15;98161.66;;;14.10
47484;BMP280;54076;50.322;18.650;2024-03-23T01:47:16;98158.39;;;14.11
47484;BMP280;54076;50.322;18.650;2024-03-23T01:52:18;98158.80;;;14.07
47484;BMP280;54076;50.322;18.650;2024-03-23T01:57:22;98162.95;;;13.88
47484;BMP280;54076;50.322;18.650;2024-03-23T02:02:23;98162.36;;;13.56
47484;BMP280;54076;50.322;18.650;2024-03-23T02:07:24;98164.02;;;13.45
47484;BMP280;54076;50.322;18.650;2024-03-23T02:12:25;98162.82;;;13.34
47484;BMP280;54076;50.322;18.650;2024-03-23T02:17:26;98154.06;;;13.26
47484;BMP280;54076;50.322;18.650;2024-03-23T02:22:37;98158.98;;;13.23
47484;BMP280;54076;50.322;18.650;2024-03-23T02:27:38;98148.58;;;13.26
47484;BMP280;54076;50.322;18.650;2024-03-23T02:32:40;98142.89;;;13.26
47484;BMP280;54076;50.322;18.650;2024-03-23T02:37:41;98136.40;;;13.34
47484;BMP280;54076;50.322;18.650;2024-03-23T02:42:43;98134.52;;;13.30
47484;BMP280;54076;50.322;18.650;2024-03-23T02:47:44;98131.77;;;13.30
47484;BMP280;54076;50.322;18.650;2024-03-23T02:52:45;98121.05;;;13.27
47484;BMP280;54076;50.322;18.650;2024-03-23T02:57:46;98118.41;;;13.34
47484;BMP280;54076;50.322;18.650;2024-03-23T03:02:47;98114.66;;;13.18
47484;BMP280;54076;50.322;18.650;2024-03-23T03:07:48;98113.55;;;13.13
47484;BMP280;54076;50.322;18.650;2024-03-23T03:12:49;98102.48;;;13.16
47484;BMP280;54076;50.322;18.650;2024-03-23T03:17:49;98084.95;;;13.06
47484;BMP280;54076;50.322;18.650;2024-03-23T03:22:50;98065.10;;;13.20
47484;BMP280;54076;50.322;18.650;2024-03-23T03:27:53;98066.34;;;13.26
47484;BMP280;54076;50.322;18.650;2024-03-23T03:32:54;98066.11;;;13.08
47484;BMP280;54076;50.322;18.650;2024-03-23T03:37:55;98066.21;;;12.99
47484;BMP280;54076;50.322;18.650;2024-03-23T03:42:56;98060.45;;;12.97
47484;BMP280;54076;50.322;18.650;2024-03-23T03:47:57;98060.95;;;13.05
47484;BMP280;54076;50.322;18.650;2024-03-23T03:52:59;98059.27;;;12.92
47484;BMP280;54076;50.322;18.650;2024-03-23T03:58:00;98045.02;;;12.89
47484;BMP280;54076;50.322;18.650;2024-03-23T04:03:02;98031.46;;;12.90
47484;BMP280;54076;50.322;18.650;2024-03-23T04:08:04;98021.05;;;13.01
47484;BMP280;54076;50.322;18.650;2024-03-23T04:13:05;98025.36;;;13.10
47484;BMP280;54076;50.322;18.650;2024-03-23T04:18:06;98019.80;;;13.08
47484;BMP280;54076;50.322;18.650;2024-03-23T04:23:07;98007.98;;;12.92
47484;BMP280;54076;50.322;18.650;2024-03-23T04:28:08;97994.23;;;13.03
47484;BMP280;54076;50.322;18.650;2024-03-23T04:33:08;97993.59;;;13.04
47484;BMP280;54076;50.322;18.650;2024-03-23T04:38:09;97994.05;;;13.16
47484;BMP280;54076;50.322;18.650;2024-03-23T04:43:10;98003.55;;;13.17
47484;BMP280;54076;50.322;18.650;2024-03-23T04:48:11;98007.86;;;12.99
47484;BMP280;54076;50.322;18.650;2024-03-23T04:53:12;98007.40;;;12.92
47484;BMP280;54076;50.322;18.650;2024-03-23T04:58:13;97994.92;;;12.99
47484;BMP280;54076;50.322;18.650;2024-03-23T05:03:14;97985.31;;;12.82
47484;BMP280;54076;50.322;18.650;2024-03-23T05:08:16;97972.96;;;12.88
47484;BMP280;54076;50.322;18.650;2024-03-23T05:13:17;97966.31;;;12.88
47484;BMP280;54076;50.322;18.650;2024-03-23T05:18:18;97952.46;;;12.86
47484;BMP280;54076;50.322;18.650;2024-03-23T05:23:19;97950.61;;;12.88
47484;BMP280;54076;50.322;18.650;2024-03-23T05:28:22;97953.89;;;12.77
47484;BMP280;54076;50.322;18.650;2024-03-23T05:33:23;97951.55;;;12.81
47484;BMP280;54076;50.322;18.650;2024-03-23T05:38:24;97958.98;;;12.82
47484;BMP280;54076;50.322;18.650;2024-03-23T05:43:26;97944.59;;;12.71
47484;BMP280;54076;50.322;18.650;2024-03-23T05:48:27;97921.98;;;12.79
47484;BMP280;54076;50.322;18.650;2024-03-23T05:53:28;97909.48;;;12.87
47484;BMP280;54076;50.322;18.650;2024-03-23T05:58:30;97908.17;;;12.77
47484;BMP280;54076;50.322;18.650;2024-03-23T06:03:31;97901.98;;;12.93
47484;BMP280;54076;50.322;18.650;2024-03-23T06:08:32;97911.63;;;13.00
47484;BMP280;54076;50.322;18.650;2024-03-23T06:13:33;97903.36;;;12.87
47484;BMP280;54076;50.322;18.650;2024-03-23T06:18:35;97903.16;;;12.90
47484;BMP280;54076;50.322;18.650;2024-03-23T06:23:36;97908.72;;;13.13
47484;BMP280;54076;50.322;18.650;2024-03-23T06:28:37;97910.77;;;13.08
47484;BMP280;54076;50.322;18.650;2024-03-23T06:33:39;97905.59;;;13.31
47484;BMP280;54076;50.322;18.650;2024-03-23T06:38:40;97911.66;;;13.70
47484;BMP280;54076;50.322;18.650;2024-03-23T06:43:41;97901.27;;;13.86
47484;BMP280;54076;50.322;18.650;2024-03-23T06:48:45;97892.86;;;13.92
47484;BMP280;54076;50.322;18.650;2024-03-23T06:53:45;97883.84;;;13.96
47484;BMP280;54076;50.322;18.650;2024-03-23T06:58:46;97880.27;;;14.03
47484;BMP280;54076;50.322;18.650;2024-03-23T07:03:47;97875.22;;;14.44
47484;BMP280;54076;50.322;18.650;2024-03-23T07:08:48;97875.81;;;14.56
47484;BMP280;54076;50.322;18.650;2024-03-23T07:13:50;97865.96;;;14.57
47484;BMP280;54076;50.322;18.650;2024-03-23T07:18:51;97865.74;;;14.67
47484;BMP280;54076;50.322;18.650;2024-03-23T07:23:52;97858.16;;;14.66
47484;BMP280;54076;50.322;18.650;2024-03-23T07:28:53;97862.23;;;14.46
47484;BMP280;54076;50.322;18.650;2024-03-23T07:33:54;97857.98;;;14.55
47484;BMP280;54076;50.322;18.650;2024-03-23T07:38:55;97843.91;;;14.53
47484;BMP280;54076;50.322;18.650;2024-03-23T07:43:56;97839.30;;;14.63
47484;BMP280;54076;50.322;18.650;2024-03-23T07:48:57;97833.54;;;14.95
47484;BMP280;54076;50.322;18.650;2024-03-23T07:53:58;97828.88;;;15.41
47484;BMP280;54076;50.322;18.650;2024-03-23T07:58:59;97818.52;;;15.64
47484;BMP280;54076;50.322;18.650;2024-03-23T08:04:00;97816.40;;;16.13
47484;BMP280;54076;50.322;18.650;2024-03-23T08:09:01;97807.58;;;16.46
47484;BMP280;54076;50.322;18.650;2024-03-23T08:14:02;97791.45;;;16.63
47484;BMP280;54076;50.322;18.650;2024-03-23T08:19:05;97771.89;;;16.86
47484;BMP280;54076;50.322;18.650;2024-03-23T08:24:06;97761.05;;;17.08
47484;BMP280;54076;50.322;18.650;2024-03-23T08:29:07;97749.48;;;17.02
47484;BMP280;54076;50.322;18.650;2024-03-23T08:34:07;97757.16;;;17.17
47484;BMP280;54076;50.322;18.650;2024-03-23T08:39:09;97731.48;;;17.42
47484;BMP280;54076;50.322;18.650;2024-03-23T08:44:10;97725.81;;;17.51
47484;BMP280;54076;50.322;18.650;2024-03-23T08:49:10;97718.38;;;17.64
47484;BMP280;54076;50.322;18.650;2024-03-23T08:54:13;97719.70;;;17.66
47484;BMP280;54076;50.322;18.650;2024-03-23T08:59:13;97709.08;;;18.10
47484;BMP280;54076;50.322;18.650;2024-03-23T09:04:14;97702.02;;;18.02
47484;BMP280;54076;50.322;18.650;2024-03-23T09:09:15;97677.42;;;18.16
47484;BMP280;54076;50.322;18.650;2024-03-23T09:14:16;97670.77;;;17.73
47484;BMP280;54076;50.322;18.650;2024-03-23T09:19:17;97643.48;;;17.96
47484;BMP280;54076;50.322;18.650;2024-03-23T09:24:18;97648.23;;;18.05
47484;BMP280;54076;50.322;18.650;2024-03-23T09:29:19;97634.85;;;18.11
47484;BMP280;54076;50.322;18.650;2024-03-23T09:34:20;97622.90;;;18.22
47484;BMP280;54076;50.322;18.650;2024-03-23T09:39:21;97608.71;;;18.16
47484;BMP280;54076;50.322;18.650;2024-03-23T09:44:22;97607.86;;;18.54
47484;BMP280;54076;50.322;18.650;2024-03-23T09:49:23;97596.15;;;18.41
47484;BMP280;54076;50.322;18.650;2024-03-23T09:54:25;97586.52;;;18.59
47484;BMP280;54076;50.322;18.650;2024-03-23T09:59:26;97581.27;;;18.91
47484;BMP280;54076;50.322;18.650;2024-03-23T10:04:42;97569.07;;;18.80
47484;BMP280;54076;50.322;18.650;2024-03-23T10:09:45;97557.04;;;19.36
47484;BMP280;54076;50.322;18.650;2024-03-23T10:14:47;97546.36;;;18.80
47484;BMP280;54076;50.322;18.650;2024-03-23T10:19:50;97528.64;;;19.16
47484;BMP280;54076;50.322;18.650;2024-03-23T10:24:52;97532.60;;;19.70
47484;BMP280;54076;50.322;18.650;2024-03-23T10:30:10;97534.01;;;19.76
47484;BMP280;54076;50.322;18.650;2024-03-23T10:35:21;97507.38;;;20.03
47484;BMP280;54076;50.322;18.650;2024-03-23T10:40:23;97501.36;;;20.62
47484;BMP280;54076;50.322;18.650;2024-03-23T10:45:24;97480.33;;;20.93
47484;BMP280;54076;50.322;18.650;2024-03-23T10:50:25;97462.87;;;22.31
47484;BMP280;54076;50.322;18.650;2024-03-23T10:55:27;97454.95;;;22.30
47484;BMP280;54076;50.322;18.650;2024-03-23T11:00:29;97450.34;;;22.40
47484;BMP280;54076;50.322;18.650;2024-03-23T11:05:30;97436.91;;;22.84
47484;BMP280;54076;50.322;18.650;2024-03-23T11:10:31;97413.80;;;23.08
47484;BMP280;54076;50.322;18.650;2024-03-23T11:15:33;97413.17;;;23.20
47484;BMP280;54076;50.322;18.650;2024-03-23T11:20:35;97385.30;;;23.73
47484;BMP280;54076;50.322;18.650;2024-03-23T11:25:36;97368.15;;;24.18
47484;BMP280;54076;50.322;18.650;2024-03-23T11:30:37;97346.13;;;24.54
47484;BMP280;54076;50.322;18.650;2024-03-23T11:35:41;97341.57;;;24.31
47484;BMP280;54076;50.322;18.650;2024-03-23T11:40:45;97334.96;;;24.16
47484;BMP280;54076;50.322;18.650;2024-03-23T11:45:51;97317.53;;;24.23
47484;BMP280;54076;50.322;18.650;2024-03-23T11:50:57;97300.63;;;24.92
47484;BMP280;54076;50.322;18.650;2024-03-23T11:55:59;97285.85;;;24.73
47484;BMP280;54076;50.322;18.650;2024-03-23T12:01:03;97287.73;;;24.22
47484;BMP280;54076;50.322;18.650;2024-03-23T12:06:04;97265.69;;;24.50
47484;BMP280;54076;50.322;18.650;2024-03-23T12:11:13;97261.16;;;25.18
47484;BMP280;54076;50.322;18.650;2024-03-23T12:16:24;97254.19;;;25.67
47484;BMP280;54076;50.322;18.650;2024-03-23T12:21:28;97230.40;;;25.45
47484;BMP280;54076;50.322;18.650;2024-03-23T12:26:29;97199.29;;;25.73
47484;BMP280;54076;50.322;18.650;2024-03-23T12:31:29;97182.98;;;25.85
47484;BMP280;54076;50.322;18.650;2024-03-23T12:36:30;97170.83;;;26.56
47484;BMP280;54076;50.322;18.650;2024-03-23T12:41:31;97175.00;;;26.32
47484;BMP280;54076;50.322;18.650;2024-03-23T12:46:32;97171.56;;;25.16
47484;BMP280;54076;50.322;18.650;2024-03-23T12:51:33;97154.16;;;25.00
47484;BMP280;54076;50.322;18.650;2024-03-23T12:56:35;97156.43;;;23.67
47484;BMP280;54076;50.322;18.650;2024-03-23T13:01:36;97151.08;;;24.34
47484;BMP280;54076;50.322;18.650;2024-03-23T13:06:37;97161.20;;;23.07
47484;BMP280;54076;50.322;18.650;2024-03-23T13:11:38;97141.06;;;22.38
47484;BMP280;54076;50.322;18.650;2024-03-23T13:16:39;97172.16;;;21.81
47484;BMP280;54076;50.322;18.650;2024-03-23T13:21:40;97198.05;;;21.26
47484;BMP280;54076;50.322;18.650;2024-03-23T13:26:41;97357.71;;;20.97
47484;BMP280;54076;50.322;18.650;2024-03-23T13:31:42;97457.43;;;14.53
47484;BMP280;54076;50.322;18.650;2024-03-23T13:36:44;97474.48;;;12.97
47484;BMP280;54076;50.322;18.650;2024-03-23T13:41:45;97475.54;;;12.92
47484;BMP280;54076;50.322;18.650;2024-03-23T13:46:46;97471.41;;;12.80
47484;BMP280;54076;50.322;18.650;2024-03-23T13:51:47;97484.79;;;12.83
47484;BMP280;54076;50.322;18.650;2024-03-23T13:56:50;97475.73;;;12.98
47484;BMP280;54076;50.322;18.650;2024-03-23T14:01:51;97476.04;;;13.05
47484;BMP280;54076;50.322;18.650;2024-03-23T14:06:52;97457.65;;;13.26
47484;BMP280;54076;50.322;18.650;2024-03-23T14:11:53;97457.63;;;13.47
47484;BMP280;54076;50.322;18.650;2024-03-23T14:16:54;97465.63;;;13.45
47484;BMP280;54076;50.322;18.650;2024-03-23T14:21:55;97459.28;;;13.56
47484;BMP280;54076;50.322;18.650;2024-03-23T14:26:55;97444.63;;;13.53
47484;BMP280;54076;50.322;18.650;2024-03-23T14:31:56;97422.01;;;13.62
47484;BMP280;54076;50.322;18.650;2024-03-23T14:36:57;97434.83;;;13.62
47484;BMP280;54076;50.322;18.650;2024-03-23T14:41:59;97417.04;;;13.67
47484;BMP280;54076;50.322;18.650;2024-03-23T14:47:00;97416.55;;;13.96
47484;BMP280;54076;50.322;18.650;2024-03-23T14:52:01;97400.04;;;14.05
47484;BMP280;54076;50.322;18.650;2024-03-23T14:57:02;97372.69;;;14.10
47484;BMP280;54076;50.322;18.650;2024-03-23T15:02:06;97379.86;;;14.20
47484;BMP280;54076;50.322;18.650;2024-03-23T15:07:07;97387.84;;;14.18
47484;BMP280;54076;50.322;18.650;2024-03-23T15:12:08;97394.20;;;14.18
47484;BMP280;54076;50.322;18.650;2024-03-23T15:17:09;97420.59;;;14.09
47484;BMP280;54076;50.322;18.650;2024-03-23T15:22:10;97433.80;;;13.95
47484;BMP280;54076;50.322;18.650;2024-03-23T15:27:11;97444.83;;;14.00
47484;BMP280;54076;50.322;18.650;2024-03-23T15:32:12;97444.89;;;13.98
47484;BMP280;54076;50.322;18.650;2024-03-23T15:37:14;97443.22;;;13.94
47484;BMP280;54076;50.322;18.650;2024-03-23T15:42:15;97429.64;;;14.02
47484;BMP280;54076;50.322;18.650;2024-03-23T15:47:16;97443.27;;;14.05
47484;BMP280;54076;50.322;18.650;2024-03-23T15:52:17;97441.96;;;14.01
47484;BMP280;54076;50.322;18.650;2024-03-23T15:57:18;97474.55;;;13.98
47484;BMP280;54076;50.322;18.650;2024-03-23T16:02:19;97551.73;;;13.88
47484;BMP280;54076;50.322;18.650;2024-03-23T16:07:20;97580.32;;;12.89
47484;BMP280;54076;50.322;18.650;2024-03-23T16:12:21;97604.07;;;12.39
47484;BMP280;54076;50.322;18.650;2024-03-23T16:17:22;97618.46;;;12.17
47484;BMP280;54076;50.322;18.650;2024-03-23T16:22:23;97630.45;;;11.39
47484;BMP280;54076;50.322;18.650;2024-03-23T16:27:24;97641.56;;;10.97
47484;BMP280;54076;50.322;18.650;2024-03-23T16:32:25;97654.97;;;10.80
47484;BMP280;54076;50.322;18.650;2024-03-23T16:37:28;97698.42;;;10.69
47484;BMP280;54076;50.322;18.650;2024-03-23T16:42:29;97716.23;;;10.02
47484;BMP280;54076;50.322;18.650;2024-03-23T16:47:30;97743.06;;;9.91
47484;BMP280;54076;50.322;18.650;2024-03-23T16:52:31;97758.20;;;9.93
47484;BMP280;54076;50.322;18.650;2024-03-23T16:57:32;97769.36;;;9.69
47484;BMP280;54076;50.322;18.650;2024-03-23T17:02:33;97758.86;;;9.80
47484;BMP280;54076;50.322;18.650;2024-03-23T17:07:38;97766.79;;;9.74
47484;BMP280;54076;50.322;18.650;2024-03-23T17:12:39;97775.01;;;9.82
47484;BMP280;54076;50.322;18.650;2024-03-23T17:17:40;97781.08;;;9.60
47484;BMP280;54076;50.322;18.650;2024-03-23T17:22:41;97802.77;;;9.40
47484;BMP280;54076;50.322;18.650;2024-03-23T17:27:43;97803.55;;;9.28
47484;BMP280;54076;50.322;18.650;2024-03-23T17:32:44;97808.73;;;9.50
47484;BMP280;54076;50.322;18.650;2024-03-23T17:37:45;97830.55;;;9.49
47484;BMP280;54076;50.322;18.650;2024-03-23T17:42:46;97852.34;;;9.36
47484;BMP280;54076;50.322;18.650;2024-03-23T17:47:46;97865.64;;;9.07
47484;BMP280;54076;50.322;18.650;2024-03-23T17:52:48;97879.98;;;9.02
47484;BMP280;54076;50.322;18.650;2024-03-23T17:57:49;97911.30;;;8.83
47484;BMP280;54076;50.322;18.650;2024-03-23T18:02:49;97908.59;;;8.96
47484;BMP280;54076;50.322;18.650;2024-03-23T18:07:50;97933.84;;;8.81
47484;BMP280;54076;50.322;18.650;2024-03-23T18:12:51;97937.25;;;8.93
47484;BMP280;54076;50.322;18.650;2024-03-23T18:17:52;97923.04;;;8.91
47484;BMP280;54076;50.322;18.650;2024-03-23T18:22:53;97937.47;;;8.88
47484;BMP280;54076;50.322;18.650;2024-03-23T18:27:54;97938.94;;;8.83
47484;BMP280;54076;50.322;18.650;2024-03-23T18:32:55;97942.23;;;8.83
47484;BMP280;54076;50.322;18.650;2024-03-23T18:37:56;97928.73;;;8.80
47484;BMP280;54076;50.322;18.650;2024-03-23T18:42:56;97928.61;;;8.66
47484;BMP280;54076;50.322;18.650;2024-03-23T18:47:57;97938.09;;;8.69
47484;BMP280;54076;50.322;18.650;2024-03-23T18:52:58;97941.01;;;8.68
47484;BMP280;54076;50.322;18.650;2024-03-23T18:57:59;97942.77;;;8.75
47484;BMP280;54076;50.322;18.650;2024-03-23T19:03:00;97946.89;;;8.78
47484;BMP280;54076;50.322;18.650;2024-03-23T19:08:01;97938.52;;;8.75
47484;BMP280;54076;50.322;18.650;2024-03-23T19:13:02;97933.18;;;8.84
47484;BMP280;54076;50.322;18.650;2024-03-23T19:18:03;97927.45;;;8.62
47484;BMP280;54076;50.322;18.650;2024-03-23T19:23:05;97929.30;;;8.79
47484;BMP280;54076;50.322;18.650;2024-03-23T19:28:06;97914.86;;;8.75
47484;BMP280;54076;50.322;18.650;2024-03-23T19:33:06;97921.03;;;8.49
47484;BMP280;54076;50.322;18.650;2024-03-23T19:38:08;97922.76;;;8.61
47484;BMP280;54076;50.322;18.650;2024-03-23T19:43:09;97920.07;;;8.75
47484;BMP280;54076;50.322;18.650;2024-03-23T19:48:10;97942.96;;;8.66
47484;BMP280;54076;50.322;18.650;2024-03-23T19:53:12;97954.95;;;8.56
47484;BMP280;54076;50.322;18.650;2024-03-23T19:58:12;97964.02;;;8.62
47484;BMP280;54076;50.322;18.650;2024-03-23T20:03:13;97957.22;;;8.50
47484;BMP280;54076;50.322;18.650;2024-03-23T20:08:14;97956.48;;;8.54
47484;BMP280;54076;50.322;18.650;2024-03-23T20:13:15;97932.97;;;8.25
47484;BMP280;54076;50.322;18.650;2024-03-23T20:18:16;97919.27;;;8.28
47484;BMP280;54076;50.322;18.650;2024-03-23T20:23:17;97944.48;;;8.33
47484;BMP280;54076;50.322;18.650;2024-03-23T20:28:18;97957.12;;;8.27
47484;BMP280;54076;50.322;18.650;2024-03-23T20:33:20;97950.56;;;8.18
47484;BMP280;54076;50.322;18.650;2024-03-23T20:38:22;97960.33;;;8.22
47484;BMP280;54076;50.322;18.650;2024-03-23T20:43:24;97943.93;;;8.25
47484;BMP280;54076;50.322;18.650;2024-03-23T20:48:25;97939.20;;;8.23
47484;BMP280;54076;50.322;18.650;2024-03-23T20:53:27;97942.05;;;8.10
47484;BMP280;54076;50.322;18.650;2024-03-23T20:58:29;97942.70;;;8.12
47484;BMP280;54076;50.322;18.650;2024-03-23T21:03:32;97932.02;;;8.17
47484;BMP280;54076;50.322;18.650;2024-03-23T21:08:34;97931.70;;;8.11
47484;BMP280;54076;50.322;18.650;2024-03-23T21:13:35;97945.37;;;7.99
47484;BMP280;54076;50.322;18.650;2024-03-23T21:18:36;97950.79;;;8.03
47484;BMP280;54076;50.322;18.650;2024-03-23T21:23:37;97944.11;;;8.19
47484;BMP280;54076;50.322;18.650;2024-03-23T21:28:38;97937.30;;;8.05
47484;BMP280;54076;50.322;18.650;2024-03-23T21:33:39;97937.27;;;8.06
47484;BMP280;54076;50.322;18.650;2024-03-23T21:38:40;97938.19;;;8.29
47484;BMP280;54076;50.322;18.650;2024-03-23T21:43:41;97918.43;;;8.11
47484;BMP280;54076;50.322;18.650;2024-03-23T21:48:42;97917.50;;;7.92
47484;BMP280;54076;50.322;18.650;2024-03-23T21:53:44;97900.89;;;8.13
47484;BMP280;54076;50.322;18.650;2024-03-23T21:58:45;97889.15;;;8.14
47484;BMP280;54076;50.322;18.650;2024-03-23T22:03:46;97903.83;;;8.17
47484;BMP280;54076;50.322;18.650;2024-03-23T22:08:47;97899.23;;;8.28
47484;BMP280;54076;50.322;18.650;2024-03-23T22:13:47;97887.98;;;8.30
47484;BMP280;54076;50.322;18.650;2024-03-23T22:18:49;97886.02;;;8.33
47484;BMP280;54076;50.322;18.650;2024-03-23T22:23:50;97871.03;;;8.36
47484;BMP280;54076;50.322;18.650;2024-03-23T22:28:51;97871.89;;;8.41
47484;BMP280;54076;50.322;18.650;2024-03-23T22:33:53;97882.50;;;8.39
47484;BMP280;54076;50.322;18.650;2024-03-23T22:38:54;97891.59;;;8.48
47484;BMP280;54076;50.322;18.650;2024-03-23T22:43:55;97900.55;;;8.41
47484;BMP280;54076;50.322;18.650;2024-03-23T22:48:55;97908.88;;;8.32
47484;BMP280;54076;50.322;18.650;2024-03-23T22:53:56;97910.02;;;8.16
47484;BMP280;54076;50.322;18.650;2024-03-23T22:58:57;97912.59;;;8.09
47484;BMP280;54076;50.322;18.650;2024-03-23T23:03:58;97906.92;;;7.97
47484;BMP280;54076;50.322;18.650;2024-03-23T23:08:59;97897.38;;;8.05
47484;BMP280;54076;50.322;18.650;2024-03-23T23:14:00;97891.16;;;8.07
47484;BMP280;54076;50.322;18.650;2024-03-23T23:19:03;97882.35;;;7.91
47484;BMP280;54076;50.322;18.650;2024-03-23T23:24:05;97890.35;;;7.64
47484;BMP280;54076;50.322;18.650;2024-03-23T23:29:06;97900.82;;;7.67
47484;BMP280;54076;50.322;18.650;2024-03-23T23:34:07;97900.69;;;7.77
47484;BMP280;54076;50.322;18.650;2024-03-23T23:39:08;97898.23;;;7.85
47484;BMP280;54076;50.322;18.650;2024-03-23T23:44:09;97901.48;;;7.75
47484;BMP280;54076;50.322;18.650;2024-03-23T23:49:09;97891.91;;;7.86
47484;BMP280;54076;50.322;18.650;2024-03-23T23:54:10;97889.19;;;7.92
47484;BMP280;54076;50.322;18.650;2024-03-23T23:59:11;97880.94;;;7.92
